Details From KDNN - DALTON MUNI
To KXMR - CAPE CANAVERAL AFS SKID STRIP
Flight Number -
Tags decoded
Created
Modified
Stats Distance 435 nm / 806 km
Max Altitude 0 ft / 0 m
Waypoints 2
Social Downloads 0
Likes 0
Share VATSIM

Download

Looking for another format? Having issues loading an existing format? Contact us
Advertisement - Login to hide

Notes

Requested: KDNN KXMR

Route

KDNN KXMR

ID Type Via Altitude Latitude Longitude Leg Dist Tot Dist Heading (true) Name
O KDNN APT - 0 ft / 0 m 34.72294˚ -84.87024˚ - 0 nm - DALTON MUNI
O KXMR APT - 0 ft / 0 m 28.46759˚ -80.56661˚ 435 nm 435 nm 148° / 151° CAPE CANAVERAL AFS SKID STRIP

Altitude Profile

Advertisement - Login to hide

Weather


0- 5 10 15 20 25 30 35+ Temperature / ° C

Clouds and Precipitation
Forecast for 2017-12-13 00:00 UTC. Updated an hour ago

Ground ~20,000 ft ~40,000 ft Winds

KDNN

Details ICAO KDNN (DNN)
Name DALTON MUNI
Region United States
Timezone America/New_York (UTC-5.0)
Stats Elevation 710 ft / 216 m (AMSL)
Location 34.722936° -84.870242°
Runways 1
Magnetic Variation 4.938° W

METAR

KDNN 122155Z AUTO 32011G18KT 10SM CLR 06/M04 A2999 RMK AO2

Decode

TAF

Not found

Departure Runways

ID Width Length Bearing (true) Bearing (mag) Surface Threshold Offset Overrun Length
14 100 ft / 30 m 5,501 ft / 1,677 m 137.13° 142.07° Asphalt 0 ft / 0 m 0 ft / 0 m
32 100 ft / 30 m 5,501 ft / 1,677 m 317.13° 322.07° Asphalt 0 ft / 0 m 0 ft / 0 m

KXMR

Details ICAO KXMR
Name CAPE CANAVERAL AFS SKID STRIP
Region United States
Timezone America/New_York (UTC-5.0)
Stats Elevation 10 ft / 3 m (AMSL)
Location 28.467586° -80.566615°
Runways 1
Magnetic Variation 6.872° W

METAR

KXMR 122158Z AUTO 27015G21KT 10SM CLR 21/09 A2986 RMK AO2 SLP115 T02100087 $

Decode

TAF

Not found

Destination Runways

ID Width Length Bearing (true) Bearing (mag) Surface Threshold Offset Overrun Length
13 200 ft / 61 m 10,002 ft / 3,049 m 127.93° 134.80° Asphalt 0 ft / 0 m 0 ft / 0 m
31 200 ft / 61 m 10,002 ft / 3,049 m 307.94° 314.81° Asphalt 0 ft / 0 m 0 ft / 0 m